Time;durP1;ratioP1;P1;durP2;ratioP2;P2;SDS_P1;SDS_P2;PMS_P1;PMS_P2;Temp;Humidity;BMP_temperature;BMP_pressure;BME280_temperature;BME280_humidity;BME280_pressure;Samples;Min_cycle;Max_cycle;Signal;HPM_P1;HPM_P2
2022/04/02 00:00:28;;;;;;;37.87;24.80;;;3.80;62.60;;;;;;5110904;28;20190;-71
2022/04/02 00:02:54;;;;;;;47.85;26.33;;;4.50;59.30;;;;;;5114477;28;20299;-70
2022/04/02 00:05:20;;;;;;;39.40;24.88;;;5.00;55.60;;;;;;5112557;28;20280;-70
2022/04/02 00:07:46;;;;;;;42.57;25.80;;;4.30;60.10;;;;;;5094356;28;20270;-71
2022/04/02 00:10:12;;;;;;;39.63;24.37;;;4.50;58.80;;;;;;5103052;28;20174;-71
2022/04/02 00:12:38;;;;;;;37.33;24.43;;;4.80;56.80;;;;;;5114049;28;20408;-70
2022/04/02 00:15:04;;;;;;;39.10;24.70;;;4.60;57.60;;;;;;5114384;28;20182;-70
2022/04/02 00:17:29;;;;;;;42.97;25.75;;;4.60;58.50;;;;;;5112166;28;20419;-71
2022/04/02 00:19:55;;;;;;;36.50;21.93;;;4.80;56.50;;;;;;5113923;28;20197;-69
2022/04/02 00:22:21;;;;;;;34.33;22.23;;;4.90;56.00;;;;;;5114178;28;20174;-69
2022/04/02 00:24:46;;;;;;;34.33;23.07;;;4.90;55.00;;;;;;5114326;28;20166;-69
2022/04/02 00:27:12;;;;;;;34.70;22.40;;;4.80;56.70;;;;;;5107017;28;20203;-69
2022/04/02 00:29:38;;;;;;;35.33;22.70;;;4.90;54.60;;;;;;5094066;28;20228;-71
2022/04/02 00:32:06;;;;;;;37.78;23.45;;;4.40;58.30;;;;;;5106382;28;20523;-69
2022/04/02 00:34:31;;;;;;;31.38;21.27;;;4.20;61.90;;;;;;5096055;28;20555;-69
2022/04/02 00:36:57;;;;;;;31.80;22.43;;;4.20;60.00;;;;;;5113423;28;20190;-69
2022/04/02 00:39:23;;;;;;;34.50;22.93;;;4.10;61.50;;;;;;5113883;28;20246;-69
2022/04/02 00:41:48;;;;;;;33.87;23.17;;;4.20;62.90;;;;;;5113515;28;20197;-69
2022/04/02 00:44:21;;;;;;;36.17;23.90;;;4.90;58.70;;;;;;5114127;28;20162;-71
2022/04/02 00:46:47;;;;;;;35.05;22.90;;;5.20;56.00;;;;;;5095502;28;20201;-70
2022/04/02 00:49:14;;;;;;;33.75;21.88;;;5.40;53.90;;;;;;5112667;28;20185;-71
2022/04/02 00:51:41;;;;;;;33.60;21.60;;;4.80;55.30;;;;;;5113842;28;20181;-69
2022/04/02 00:54:15;;;;;;;29.83;20.70;;;4.80;55.60;;;;;;5113755;28;20188;-69
2022/04/02 00:56:41;;;;;;;33.17;21.15;;;4.10;60.80;;;;;;5113199;28;20738;-69
2022/04/02 00:59:08;;;;;;;32.78;20.77;;;4.00;63.60;;;;;;5113256;28;20217;-69
2022/04/02 01:01:35;;;;;;;34.30;22.42;;;4.40;60.10;;;;;;5093831;28;20277;-69
2022/04/02 01:04:02;;;;;;;34.20;20.77;;;4.60;58.50;;;;;;5105856;28;20178;-69
2022/04/02 01:06:29;;;;;;;35.90;21.17;;;4.30;58.20;;;;;;5113376;28;20193;-69
2022/04/02 01:08:56;;;;;;;34.40;21.48;;;4.60;57.70;;;;;;5112439;28;20194;-71
2022/04/02 01:11:22;;;;;;;34.13;22.10;;;4.20;61.10;;;;;;5112978;28;20193;-69
2022/04/02 01:13:48;;;;;;;31.30;21.33;;;4.60;58.90;;;;;;5113064;28;20639;-69
2022/04/02 01:16:13;;;;;;;33.90;22.70;;;4.40;57.20;;;;;;5112965;28;20260;-69
2022/04/02 01:18:39;;;;;;;43.07;23.07;;;4.70;58.50;;;;;;5112736;28;20204;-69
2022/04/02 01:21:05;;;;;;;38.50;25.40;;;5.00;56.60;;;;;;5111766;28;20201;-69
2022/04/02 01:23:31;;;;;;;32.97;22.03;;;5.40;52.50;;;;;;5113122;28;20520;-69
2022/04/02 01:26:00;;;;;;;36.08;23.75;;;5.80;52.40;;;;;;5104657;28;20211;-69
2022/04/02 01:28:33;;;;;;;40.88;24.63;;;6.00;48.90;;;;;;5092025;28;20227;-70
2022/04/02 01:31:01;;;;;;;40.83;25.50;;;6.10;48.80;;;;;;5113160;28;20185;-69
2022/04/02 01:33:27;;;;;;;42.58;24.98;;;6.10;48.10;;;;;;5113039;28;20568;-69
2022/04/02 01:36:04;;;;;;;39.97;25.80;;;4.70;53.30;;;;;;5111276;28;20202;-70
2022/04/02 01:38:30;;;;;;;39.78;24.40;;;5.20;53.40;;;;;;5110032;28;20189;-69
2022/04/02 01:40:56;;;;;;;42.03;25.40;;;5.50;51.10;;;;;;5112605;28;20201;-70
2022/04/02 01:43:24;;;;;;;41.45;24.98;;;4.90;54.60;;;;;;5109946;28;20450;-70
2022/04/02 01:45:56;;;;;;;43.75;27.30;;;5.00;52.90;;;;;;5109940;28;20194;-70
2022/04/02 01:48:22;;;;;;;38.33;24.25;;;5.40;52.70;;;;;;5110705;28;20280;-71
2022/04/02 01:50:48;;;;;;;45.03;26.60;;;5.30;51.30;;;;;;5112623;28;20260;-71
2022/04/02 01:53:14;;;;;;;44.10;25.95;;;5.50;50.80;;;;;;5112506;28;20408;-70
2022/04/02 01:55:40;;;;;;;39.87;26.20;;;5.20;53.70;;;;;;5111392;28;20617;-71
2022/04/02 01:58:06;;;;;;;43.40;25.93;;;5.60;51.60;;;;;;5111740;28;20419;-71
2022/04/02 02:00:32;;;;;;;38.77;23.80;;;5.40;51.50;;;;;;5112440;28;20197;-71
2022/04/02 02:02:57;;;;;;;38.25;25.17;;;5.00;53.20;;;;;;5112448;28;20166;-70
2022/04/02 02:05:23;;;;;;;42.33;26.90;;;4.70;57.10;;;;;;5111339;28;20194;-71
2022/04/02 02:07:49;;;;;;;40.97;27.33;;;5.20;53.70;;;;;;5111877;28;20174;-71
2022/04/02 02:10:15;;;;;;;42.88;26.95;;;5.70;50.90;;;;;;5111418;28;20181;-71
2022/04/02 02:12:41;;;;;;;43.00;27.10;;;5.60;51.00;;;;;;5111928;28;20261;-71
2022/04/02 02:15:08;;;;;;;43.22;27.10;;;5.70;50.70;;;;;;5110326;28;20178;-71
2022/04/02 02:17:33;;;;;;;44.30;28.10;;;6.00;48.90;;;;;;5112064;28;20266;-71
2022/04/02 02:19:59;;;;;;;40.90;26.70;;;6.40;48.90;;;;;;5112145;28;20659;-71
2022/04/02 02:22:25;;;;;;;43.37;26.07;;;6.30;47.60;;;;;;5111626;28;20174;-71
2022/04/02 02:24:50;;;;;;;41.07;26.50;;;5.60;50.00;;;;;;5112066;28;20173;-71
2022/04/02 02:27:16;;;;;;;44.87;27.07;;;5.50;50.90;;;;;;5110107;28;20749;-71
2022/04/02 02:29:42;;;;;;;42.40;28.70;;;5.40;51.40;;;;;;5112009;28;20204;-71
2022/04/02 02:32:08;;;;;;;42.50;26.00;;;6.00;50.60;;;;;;5111644;28;20217;-71
2022/04/02 02:37:18;;;;;;;46.28;27.40;;;6.40;50.00;;;;;;5111114;28;20762;-71
2022/04/02 02:39:44;;;;;;;47.17;26.50;;;6.20;47.40;;;;;;5111520;28;20186;-71
2022/04/02 02:42:10;;;;;;;41.73;27.63;;;5.90;48.20;;;;;;5111686;28;20182;-71
2022/04/02 02:44:35;;;;;;;46.63;27.47;;;5.60;48.70;;;;;;5111925;28;20624;-71
2022/04/02 02:47:01;;;;;;;43.90;26.10;;;5.40;50.20;;;;;;5111794;28;20186;-72
2022/04/02 02:49:26;;;;;;;43.73;26.33;;;6.00;50.30;;;;;;5111017;28;20252;-71
2022/04/02 02:51:52;;;;;;;47.50;25.60;;;5.90;49.40;;;;;;5111328;28;20227;-70
2022/04/02 02:54:18;;;;;;;34.80;22.63;;;5.60;49.90;;;;;;5111776;28;20299;-70
2022/04/02 02:56:43;;;;;;;47.73;26.80;;;5.00;51.40;;;;;;5111085;28;20213;-71
2022/04/02 02:59:09;;;;;;;39.40;25.07;;;5.30;53.30;;;;;;5110350;28;20706;-71
2022/04/02 03:01:35;;;;;;;47.30;25.47;;;5.60;51.90;;;;;;5109789;28;20193;-71
2022/04/02 03:04:00;;;;;;;45.37;25.80;;;5.10;50.80;;;;;;5111555;28;20178;-71
2022/04/02 03:06:26;;;;;;;40.90;25.13;;;5.10;53.10;;;;;;5111295;28;20185;-71
2022/04/02 03:08:52;;;;;;;45.60;26.87;;;5.50;50.40;;;;;;5111864;28;20192;-71
2022/04/02 03:11:17;;;;;;;45.33;24.90;;;5.70;49.70;;;;;;5092417;28;20174;-70
2022/04/02 03:13:43;;;;;;;39.03;24.83;;;5.70;49.00;;;;;;5111614;28;20205;-71
2022/04/02 03:16:09;;;;;;;39.38;26.20;;;5.80;49.90;;;;;;5111807;28;20573;-71
2022/04/02 03:18:35;;;;;;;46.60;25.17;;;5.60;48.80;;;;;;5093527;28;20238;-71
2022/04/02 03:21:00;;;;;;;45.70;27.83;;;5.30;50.80;;;;;;5110610;28;20241;-71
2022/04/02 03:23:26;;;;;;;44.27;26.43;;;5.10;50.50;;;;;;5110938;28;20185;-71
2022/04/02 03:25:52;;;;;;;37.77;24.60;;;4.40;58.70;;;;;;5093039;28;20205;-70
2022/04/02 03:28:17;;;;;;;40.60;24.10;;;4.50;58.10;;;;;;5111399;28;20651;-71
2022/04/02 03:30:43;;;;;;;38.67;24.07;;;4.80;56.30;;;;;;5111019;28;20186;-70
2022/04/02 03:33:10;;;;;;;42.00;24.80;;;5.00;52.10;;;;;;5110919;28;20181;-71
2022/04/02 03:35:36;;;;;;;38.90;24.95;;;4.90;55.10;;;;;;5111248;28;20197;-71
2022/04/02 03:38:02;;;;;;;40.45;23.55;;;4.70;54.80;;;;;;5092971;28;20186;-70
2022/04/02 03:40:27;;;;;;;37.93;24.63;;;4.60;56.10;;;;;;5111306;28;20197;-71
2022/04/02 03:42:53;;;;;;;40.43;26.60;;;5.10;54.90;;;;;;5110377;28;20550;-70
2022/04/02 03:45:20;;;;;;;39.10;25.35;;;4.80;54.30;;;;;;5113151;28;20254;-70
2022/04/02 03:47:47;;;;;;;37.35;24.35;;;5.10;53.20;;;;;;5122452;28;20177;-70
2022/04/02 03:50:13;;;;;;;44.65;24.23;;;4.70;54.60;;;;;;5115018;28;20665;-70
2022/04/02 03:52:39;;;;;;;44.90;23.70;;;4.20;62.20;;;;;;5114002;28;20174;-70
2022/04/02 03:55:06;;;;;;;41.17;23.95;;;3.70;61.90;;;;;;5114466;28;20192;-70
2022/04/02 03:57:34;;;;;;;37.40;24.10;;;4.00;63.60;;;;;;5114824;28;20173;-70
2022/04/02 03:59:59;;;;;;;39.97;25.70;;;4.60;59.30;;;;;;5096824;28;20623;-70
2022/04/02 04:02:25;;;;;;;44.20;25.73;;;5.00;56.10;;;;;;5114009;28;20207;-70
2022/04/02 04:04:51;;;;;;;39.73;24.40;;;5.20;53.90;;;;;;5114315;28;20266;-70
2022/04/02 04:07:17;;;;;;;43.58;26.67;;;5.30;52.10;;;;;;5114680;28;20205;-70
2022/04/02 04:09:43;;;;;;;36.90;23.10;;;5.20;54.10;;;;;;5114861;28;20658;-70
2022/04/02 04:12:10;;;;;;;39.50;23.33;;;5.00;54.80;;;;;;5114377;28;20226;-71
2022/04/02 04:14:36;;;;;;;41.75;22.90;;;5.30;52.50;;;;;;5113603;28;20558;-70
2022/04/02 04:17:02;;;;;;;40.88;25.67;;;5.20;52.70;;;;;;5114447;28;20193;-70
2022/04/02 04:19:28;;;;;;;38.05;23.88;;;5.40;52.30;;;;;;5114242;28;20170;-70
2022/04/02 04:21:54;;;;;;;39.27;22.80;;;5.10;52.90;;;;;;5114366;28;20629;-70
2022/04/02 04:24:20;;;;;;;32.20;22.10;;;5.00;52.40;;;;;;5113788;28;20221;-70
2022/04/02 04:26:46;;;;;;;36.70;22.30;;;5.10;53.10;;;;;;5113853;28;20686;-70
2022/04/02 04:29:12;;;;;;;43.70;22.37;;;4.80;54.00;;;;;;5113973;28;20170;-70
2022/04/02 04:31:38;;;;;;;41.13;22.90;;;5.00;53.60;;;;;;5114252;28;20719;-71
2022/04/02 04:34:04;;;;;;;47.40;25.15;;;5.20;52.70;;;;;;5113731;28;21122;-71
2022/04/02 04:36:30;;;;;;;42.28;24.05;;;5.20;51.70;;;;;;5113434;28;20201;-70
2022/04/02 04:38:57;;;;;;;49.23;25.27;;;5.00;52.90;;;;;;5114225;28;20685;-70
2022/04/02 04:41:23;;;;;;;43.10;24.33;;;4.30;56.60;;;;;;5113588;28;20194;-70
2022/04/02 04:43:48;;;;;;;45.88;25.02;;;4.90;56.50;;;;;;5113617;28;20599;-70
2022/04/02 04:46:18;;;;;;;45.90;25.43;;;4.80;54.60;;;;;;5113237;28;20201;-70
2022/04/02 04:48:45;;;;;;;44.17;22.90;;;4.50;55.30;;;;;;5113346;28;20170;-70
2022/04/02 04:51:12;;;;;;;37.38;22.38;;;4.20;58.00;;;;;;5113983;28;20184;-70
2022/04/02 04:53:37;;;;;;;49.38;23.30;;;3.80;60.10;;;;;;5113530;28;20182;-71
2022/04/02 04:56:03;;;;;;;37.87;22.50;;;4.20;57.70;;;;;;5112212;28;20209;-70
2022/04/02 04:58:29;;;;;;;38.60;21.77;;;4.30;55.90;;;;;;5113487;28;20420;-70
2022/04/02 05:00:56;;;;;;;48.67;22.37;;;4.20;56.60;;;;;;5112558;28;20487;-71
2022/04/02 05:03:25;;;;;;;34.38;21.52;;;4.40;54.70;;;;;;5113236;28;20170;-70
2022/04/02 05:05:56;;;;;;;47.00;23.88;;;4.60;55.80;;;;;;5113474;28;20198;-71
2022/04/02 05:08:23;;;;;;;50.58;22.90;;;5.00;53.80;;;;;;5113007;28;20197;-70
2022/04/02 05:10:49;;;;;;;45.53;23.15;;;5.20;51.90;;;;;;5113033;28;20181;-70
2022/04/02 05:13:15;;;;;;;38.63;23.27;;;5.30;50.50;;;;;;5113716;28;20174;-70
2022/04/02 05:15:42;;;;;;;42.63;21.92;;;5.20;50.60;;;;;;5112872;28;20240;-70
2022/04/02 05:18:08;;;;;;;41.53;23.75;;;5.50;49.80;;;;;;5112583;28;20191;-71
2022/04/02 05:20:34;;;;;;;36.70;21.73;;;5.00;51.20;;;;;;5113310;28;20201;-70
2022/04/02 05:23:00;;;;;;;38.58;22.75;;;4.80;51.60;;;;;;5113101;28;20170;-70
2022/04/02 05:25:26;;;;;;;37.70;22.50;;;5.10;51.90;;;;;;5112597;28;20292;-70
2022/04/02 05:27:54;;;;;;;40.73;23.93;;;5.20;51.00;;;;;;5112702;28;20412;-70
2022/04/02 05:30:20;;;;;;;42.55;23.88;;;5.50;50.00;;;;;;5112810;28;20174;-71
2022/04/02 05:32:46;;;;;;;40.70;23.20;;;5.30;50.20;;;;;;5112788;28;20181;-71
2022/04/02 05:35:12;;;;;;;36.30;22.10;;;5.40;50.40;;;;;;5113130;28;20899;-71
2022/04/02 05:37:45;;;;;;;49.63;24.73;;;5.60;49.40;;;;;;5112351;28;20809;-71
2022/04/02 05:40:11;;;;;;;40.75;21.30;;;5.60;48.90;;;;;;5093757;28;20625;-71
2022/04/02 05:42:37;;;;;;;43.88;23.65;;;5.20;51.20;;;;;;5112634;28;20189;-69
2022/04/02 05:45:03;;;;;;;38.33;20.70;;;4.50;54.00;;;;;;5112780;28;20644;-71
2022/04/02 05:47:47;;;;;;;31.48;18.35;;;4.70;53.90;;;;;;5111405;28;20169;-71
2022/04/02 05:50:14;;;;;;;31.55;18.58;;;5.10;52.40;;;;;;5111193;28;20201;-69
2022/04/02 05:52:41;;;;;;;31.38;18.77;;;5.30;50.40;;;;;;5112252;28;20181;-69
2022/04/02 05:55:08;;;;;;;31.27;19.13;;;5.30;50.50;;;;;;5112389;28;20322;-68
2022/04/02 05:57:37;;;;;;;35.10;18.08;;;5.50;50.00;;;;;;5111232;28;20216;-71
2022/04/02 06:00:06;;;;;;;40.25;19.25;;;5.00;51.20;;;;;;5111089;28;20189;-69
2022/04/02 06:02:32;;;;;;;36.92;19.05;;;5.40;49.80;;;;;;5097101;28;20255;-69
2022/04/02 06:04:58;;;;;;;28.85;16.83;;;5.40;50.40;;;;;;5091730;28;20560;-69
2022/04/02 06:07:23;;;;;;;36.93;17.50;;;4.80;50.80;;;;;;5091571;28;20199;-69
2022/04/02 06:09:49;;;;;;;29.40;17.97;;;5.30;51.20;;;;;;5107091;28;20185;-69
2022/04/02 06:12:15;;;;;;;31.20;17.33;;;5.60;49.40;;;;;;5110468;28;20186;-69
2022/04/02 06:14:40;;;;;;;29.90;17.50;;;5.70;47.70;;;;;;5111921;28;20436;-69
2022/04/02 06:17:06;;;;;;;28.43;16.53;;;5.60;48.40;;;;;;5112044;28;20201;-69
2022/04/02 06:19:32;;;;;;;29.67;17.37;;;4.60;51.50;;;;;;5092967;28;20270;-69
2022/04/02 06:21:57;;;;;;;33.93;17.67;;;4.80;52.90;;;;;;5111308;28;20205;-69
2022/04/02 06:24:23;;;;;;;27.43;15.37;;;5.20;51.80;;;;;;5111829;28;20181;-69
2022/04/02 06:26:48;;;;;;;27.50;15.70;;;4.70;50.00;;;;;;5111569;28;20675;-69
2022/04/02 06:29:14;;;;;;;24.23;16.53;;;4.40;56.00;;;;;;5112073;28;20174;-70
2022/04/02 06:31:40;;;;;;;29.63;16.00;;;4.80;53.60;;;;;;5111564;28;20186;-74
2022/04/02 06:34:05;;;;;;;31.80;16.67;;;4.90;51.80;;;;;;5111216;28;20185;-75
2022/04/02 06:36:31;;;;;;;30.60;16.70;;;5.10;52.00;;;;;;5112001;28;20193;-73
2022/04/02 06:38:57;;;;;;;26.17;16.23;;;5.30;51.00;;;;;;5112086;28;20228;-73
2022/04/02 06:41:23;;;;;;;26.20;17.10;;;5.40;49.60;;;;;;5111470;28;20739;-73
2022/04/02 06:43:49;;;;;;;28.03;16.40;;;5.40;49.70;;;;;;5093047;28;20450;-73
2022/04/02 06:46:14;;;;;;;28.43;16.83;;;5.60;49.00;;;;;;5112109;28;20229;-73
2022/04/02 06:48:40;;;;;;;28.43;17.47;;;5.70;49.10;;;;;;5112002;28;20246;-73
2022/04/02 06:51:07;;;;;;;29.50;17.60;;;5.90;48.50;;;;;;5111454;28;20197;-72
2022/04/02 06:53:34;;;;;;;32.55;18.80;;;5.50;48.20;;;;;;5110812;28;20182;-72
2022/04/02 06:55:59;;;;;;;27.25;16.95;;;5.50;49.10;;;;;;5093833;28;20213;-73
2022/04/02 06:58:33;;;;;;;20.33;14.87;;;5.70;48.50;;;;;;5091575;28;20171;-71
2022/04/02 07:00:59;;;;;;;21.73;15.23;;;5.60;48.10;;;;;;5111946;28;20276;-73
2022/04/02 07:03:25;;;;;;;27.73;17.50;;;5.70;48.70;;;;;;5100918;28;20265;-73
2022/04/02 07:05:51;;;;;;;29.67;16.17;;;5.60;48.60;;;;;;5103875;28;20276;-75
2022/04/02 07:08:17;;;;;;;24.90;15.98;;;5.70;48.20;;;;;;5110265;28;20520;-73
2022/04/02 07:10:43;;;;;;;25.97;16.50;;;5.70;48.90;;;;;;5095039;28;20248;-71
2022/04/02 07:13:08;;;;;;;27.70;17.80;;;5.80;47.90;;;;;;5092667;28;20523;-72
2022/04/02 07:15:34;;;;;;;22.73;14.80;;;5.70;48.20;;;;;;5110323;28;20443;-72
2022/04/02 07:18:06;;;;;;;27.77;16.33;;;5.90;48.70;;;;;;5111985;28;20174;-74
2022/04/02 07:20:34;;;;;;;24.95;14.95;;;5.30;49.10;;;;;;5111355;28;20527;-75
2022/04/02 07:23:02;;;;;;;24.17;15.10;;;5.20;48.80;;;;;;5111986;28;20231;-70
2022/04/02 07:25:29;;;;;;;21.83;15.90;;;4.20;53.80;;;;;;5113916;28;20193;-72
2022/04/02 07:27:56;;;;;;;24.20;15.38;;;4.50;56.10;;;;;;5115809;28;20190;-72
2022/04/02 07:30:23;;;;;;;23.23;14.57;;;4.90;51.90;;;;;;5115547;28;20209;-74
2022/04/02 07:32:48;;;;;;;23.30;13.90;;;4.80;51.90;;;;;;5115108;28;20201;-71
2022/04/02 07:35:14;;;;;;;25.87;13.67;;;4.90;50.60;;;;;;5115041;28;20200;-71
2022/04/02 07:38:11;;;;;;;24.03;14.13;;;4.70;51.60;;;;;;5113594;28;20638;-74
2022/04/02 07:40:44;;;;;;;22.27;14.88;;;4.00;56.90;;;;;;5112888;28;20190;-73
2022/04/02 07:43:32;;;;;;;24.30;14.98;;;4.20;54.10;;;;;;5111590;28;20277;-72
2022/04/02 07:46:10;;;;;;;28.83;16.48;;;4.20;56.60;;;;;;5114668;28;20221;-72
2022/04/02 07:48:39;;;;;;;27.25;13.05;;;4.90;53.50;;;;;;5114670;28;20227;-71
2022/04/02 07:51:11;;;;;;;26.42;13.45;;;4.30;51.70;;;;;;5114184;28;20178;-72
2022/04/02 07:53:43;;;;;;;20.98;13.73;;;4.20;55.00;;;;;;5103167;28;20521;-71
2022/04/02 07:56:18;;;;;;;23.25;14.13;;;4.50;55.10;;;;;;5114063;28;20830;-72
2022/04/02 07:58:46;;;;;;;21.67;13.40;;;4.60;52.70;;;;;;5113838;28;20532;-74
2022/04/02 08:01:16;;;;;;;17.67;11.90;;;4.40;53.70;;;;;;5108882;28;20205;-75
2022/04/02 08:03:44;;;;;;;19.65;13.15;;;4.60;51.40;;;;;;5101731;28;20232;-74
2022/04/02 08:06:11;;;;;;;24.05;14.45;;;4.50;53.70;;;;;;5113369;28;20293;-72
2022/04/02 08:08:37;;;;;;;18.83;13.43;;;5.10;51.80;;;;;;5114738;28;20262;-70
2022/04/02 08:11:02;;;;;;;19.13;13.30;;;5.00;50.30;;;;;;5113295;28;20261;-73
2022/04/02 08:13:29;;;;;;;23.20;13.00;;;4.80;51.20;;;;;;5113603;28;20435;-72
2022/04/02 08:15:57;;;;;;;22.08;13.88;;;5.20;51.10;;;;;;5113448;28;20190;-73
2022/04/02 08:18:26;;;;;;;19.60;13.65;;;5.40;49.80;;;;;;5113617;28;20235;-72
2022/04/02 08:20:52;;;;;;;27.35;14.27;;;5.40;48.40;;;;;;5113626;28;20190;-71
2022/04/02 08:23:18;;;;;;;29.25;13.90;;;5.20;49.60;;;;;;5093661;28;20678;-69
2022/04/02 08:25:55;;;;;;;25.37;15.37;;;5.20;51.00;;;;;;5112443;28;20213;-71
2022/04/02 08:28:43;;;;;;;25.73;15.43;;;5.80;48.50;;;;;;5111399;28;20776;-72
2022/04/02 08:31:49;;;;;;;25.98;13.80;;;4.70;52.70;;;;;;5113280;28;20162;-71
2022/04/02 08:34:56;;;;;;;24.50;15.48;;;5.10;52.00;;;;;;4998891;28;20212;-75
2022/04/02 08:37:29;;;;;;;23.20;14.60;;;4.80;53.40;;;;;;4997836;28;20217;-74
2022/04/02 08:40:18;;;;;;;21.38;14.55;;;4.90;52.90;;;;;;5011442;28;20189;-74
2022/04/02 08:43:18;;;;;;;23.38;14.43;;;4.00;55.50;;;;;;5008113;28;20189;-72
2022/04/02 08:46:03;;;;;;;22.48;14.20;;;3.80;59.70;;;;;;5002885;28;20197;-72
2022/04/02 08:48:33;;;;;;;23.65;14.48;;;4.80;54.60;;;;;;5003005;28;20265;-72
2022/04/02 08:51:21;;;;;;;22.58;14.02;;;4.80;53.80;;;;;;4992845;28;20205;-72
2022/04/02 08:54:04;;;;;;;22.25;13.32;;;5.10;51.50;;;;;;5005804;28;20185;-70
2022/04/02 08:56:43;;;;;;;23.33;13.15;;;5.40;49.90;;;;;;5004452;28;20209;-72
2022/04/02 08:59:14;;;;;;;18.65;13.18;;;4.50;51.30;;;;;;5000796;28;20182;-72
2022/04/02 09:02:10;;;;;;;19.90;12.88;;;4.60;53.30;;;;;;5006344;28;20205;-71
2022/04/02 09:05:12;;;;;;;21.77;13.30;;;5.10;51.70;;;;;;4992028;28;20236;-70
2022/04/02 09:07:47;;;;;;;20.95;13.60;;;4.60;51.50;;;;;;5008513;28;20900;-70
2022/04/02 09:10:34;;;;;;;19.98;13.00;;;4.00;56.90;;;;;;5062547;28;20647;-71
2022/04/02 09:13:17;;;;;;;18.55;13.02;;;4.90;54.00;;;;;;5103834;28;20174;-71
2022/04/02 09:16:07;;;;;;;17.13;11.65;;;5.70;48.40;;;;;;5108178;28;20265;-72
2022/04/02 09:18:44;;;;;;;22.55;12.80;;;4.80;48.50;;;;;;5111549;28;20790;-71
2022/04/02 09:21:48;;;;;;;19.30;13.18;;;4.30;55.00;;;;;;5105441;28;20205;-72
2022/04/02 09:24:26;;;;;;;19.77;13.20;;;4.60;51.80;;;;;;5110721;28;20188;-71
2022/04/02 09:27:16;;;;;;;17.83;13.07;;;4.10;55.40;;;;;;5111523;28;20201;-71
2022/04/02 09:30:28;;;;;;;18.80;12.85;;;4.30;54.30;;;;;;5093344;28;20699;-71
2022/04/02 09:33:30;;;;;;;18.83;12.63;;;4.80;52.50;;;;;;5110138;28;20245;-67
2022/04/02 09:36:29;;;;;;;19.40;12.65;;;5.10;51.10;;;;;;5110657;28;20208;-71
2022/04/02 09:39:04;;;;;;;21.80;12.57;;;5.60;48.90;;;;;;5108865;28;20189;-67
2022/04/02 09:41:45;;;;;;;19.83;12.75;;;4.50;48.70;;;;;;5107430;28;20213;-70
2022/04/02 09:44:19;;;;;;;28.63;13.10;;;5.20;49.10;;;;;;5098176;28;20219;-69
2022/04/02 09:47:22;;;;;;;18.67;12.75;;;5.60;48.20;;;;;;5111269;28;20268;-68
2022/04/02 09:50:05;;;;;;;20.40;12.88;;;5.90;45.40;;;;;;5027587;28;20216;-70
2022/04/02 09:52:33;;;;;;;20.17;13.15;;;5.20;49.10;;;;;;5029036;28;20184;-67
2022/04/02 09:55:07;;;;;;;25.17;12.85;;;5.10;48.80;;;;;;5029192;28;20204;-67
2022/04/02 09:57:44;;;;;;;24.85;12.80;;;5.40;47.10;;;;;;5029289;28;20268;-69
2022/04/02 10:00:11;;;;;;;26.90;13.32;;;4.30;53.50;;;;;;5029114;28;20318;-66
2022/04/02 10:03:04;;;;;;;23.98;13.65;;;4.30;53.10;;;;;;5028817;28;20180;-67
2022/04/02 10:05:54;;;;;;;23.10;13.73;;;3.70;59.00;;;;;;5028542;28;20620;-67
2022/04/02 10:08:39;;;;;;;26.00;15.07;;;4.30;53.60;;;;;;5029460;28;20622;-68
2022/04/02 10:11:11;;;;;;;29.30;15.18;;;5.10;50.80;;;;;;5028976;28;20188;-68
2022/04/02 10:13:39;;;;;;;27.27;13.68;;;5.60;47.70;;;;;;5028708;28;20195;-68
2022/04/02 10:16:11;;;;;;;23.13;13.18;;;6.30;45.00;;;;;;5029052;28;20212;-68
2022/04/02 10:18:40;;;;;;;20.73;13.50;;;5.70;45.80;;;;;;5029103;28;20271;-68
2022/04/02 10:21:06;;;;;;;23.80;13.20;;;5.80;45.80;;;;;;5028724;28;20201;-68
2022/04/02 10:23:36;;;;;;;19.47;13.20;;;5.50;47.60;;;;;;5028997;28;20763;-68
2022/04/02 10:26:09;;;;;;;18.73;12.20;;;5.90;46.80;;;;;;5064802;28;20220;-68
2022/04/02 10:28:47;;;;;;;20.00;12.95;;;6.20;44.50;;;;;;5093873;28;20265;-68
2022/04/02 10:31:35;;;;;;;22.80;13.60;;;6.10;45.60;;;;;;5093195;28;20178;-68
2022/04/02 10:34:29;;;;;;;20.02;12.93;;;6.70;44.00;;;;;;5110415;28;20178;-68
2022/04/02 10:37:07;;;;;;;17.15;11.60;;;5.80;43.10;;;;;;5064015;28;20296;-70
2022/04/02 10:39:38;;;;;;;21.08;12.85;;;4.10;49.20;;;;;;5111731;28;20185;-71
2022/04/02 10:42:07;;;;;;;26.63;14.02;;;4.20;52.50;;;;;;5111527;28;20209;-71
2022/04/02 10:44:43;;;;;;;20.48;13.95;;;4.80;49.40;;;;;;5111445;28;20693;-70
2022/04/02 10:47:12;;;;;;;22.60;14.77;;;5.40;47.20;;;;;;5111135;28;20608;-70
2022/04/02 10:49:40;;;;;;;26.05;14.23;;;5.50;48.10;;;;;;5111430;28;20582;-71
2022/04/02 10:52:11;;;;;;;24.30;14.68;;;5.70;45.00;;;;;;5111095;28;20736;-71
2022/04/02 10:54:40;;;;;;;25.10;15.18;;;6.10;46.20;;;;;;5110852;28;20192;-71
2022/04/02 10:57:06;;;;;;;19.70;14.20;;;6.30;44.20;;;;;;5110956;28;20198;-71
2022/04/02 10:59:32;;;;;;;19.90;13.63;;;6.00;43.80;;;;;;5114395;28;20219;-71
2022/04/02 11:02:02;;;;;;;26.58;14.45;;;5.70;44.40;;;;;;5115483;28;20197;-70
2022/04/02 11:04:30;;;;;;;21.08;14.30;;;4.40;51.40;;;;;;5097471;28;20184;-71
2022/04/02 11:06:57;;;;;;;23.25;15.07;;;5.00;48.90;;;;;;5114838;28;20229;-71
2022/04/02 11:09:39;;;;;;;26.63;15.50;;;5.50;46.40;;;;;;5114246;28;20205;-73
2022/04/02 11:12:17;;;;;;;24.42;14.32;;;5.80;46.30;;;;;;5096629;28;20215;-71
2022/04/02 11:14:44;;;;;;;22.35;14.30;;;5.10;45.40;;;;;;5114518;28;20243;-71
2022/04/02 11:17:32;;;;;;;20.98;13.52;;;5.20;47.60;;;;;;5095968;28;20193;-71
2022/04/02 11:20:07;;;;;;;23.70;15.50;;;6.40;43.50;;;;;;5115129;28;20656;-70
2022/04/02 11:22:59;;;;;;;26.05;14.40;;;5.60;45.80;;;;;;5114497;28;20162;-75
2022/04/02 11:25:34;;;;;;;22.65;14.30;;;5.80;45.50;;;;;;5059631;28;20218;-73
2022/04/02 11:28:05;;;;;;;22.05;13.73;;;6.20;42.30;;;;;;5112999;28;20634;-71
2022/04/02 11:30:36;;;;;;;21.35;14.20;;;5.50;45.70;;;;;;5115458;28;20186;-73
2022/04/02 11:33:09;;;;;;;21.15;14.07;;;5.50;44.50;;;;;;5114731;28;20280;-75
2022/04/02 11:35:47;;;;;;;25.42;14.18;;;4.90;49.10;;;;;;5114166;28;20198;-73
2022/04/02 11:38:37;;;;;;;23.20;15.73;;;5.40;46.70;;;;;;5094746;28;20738;-73
2022/04/02 11:41:02;;;;;;;25.52;15.90;;;5.70;46.70;;;;;;5111249;28;20194;-72
2022/04/02 11:43:39;;;;;;;23.03;15.40;;;5.80;45.90;;;;;;5114103;28;20170;-74
2022/04/02 11:46:07;;;;;;;24.77;17.48;;;6.50;44.10;;;;;;5114383;28;20198;-73
2022/04/02 11:48:35;;;;;;;23.48;15.68;;;6.20;43.10;;;;;;5112764;28;20867;-73
2022/04/02 11:51:25;;;;;;;25.63;15.50;;;5.70;44.80;;;;;;5114580;28;20252;-72
2022/04/02 11:53:51;;;;;;;24.20;15.77;;;5.10;45.60;;;;;;5114664;28;20292;-75
2022/04/02 11:56:47;;;;;;;22.90;15.55;;;5.10;48.60;;;;;;5113559;28;20926;-74
2022/04/02 11:59:17;;;;;;;23.27;15.90;;;6.00;46.10;;;;;;5009237;28;20177;-72
2022/04/02 12:01:51;;;;;;;24.92;16.40;;;6.10;44.60;;;;;;4992583;28;20197;-72
2022/04/02 12:04:19;;;;;;;22.10;15.43;;;7.00;42.90;;;;;;4997146;28;20660;-75
2022/04/02 12:06:50;;;;;;;28.52;16.52;;;6.30;43.00;;;;;;5002141;28;20761;-72
2022/04/02 12:09:22;;;;;;;28.00;17.42;;;6.10;44.30;;;;;;5010039;28;20196;-73
2022/04/02 12:11:56;;;;;;;25.40;16.48;;;6.30;43.00;;;;;;4996550;28;20208;-72
2022/04/02 12:14:31;;;;;;;28.38;16.65;;;5.10;47.10;;;;;;5007852;28;20197;-70
2022/04/02 12:17:02;;;;;;;25.13;17.15;;;4.80;49.10;;;;;;5010690;28;20271;-73
2022/04/02 12:19:55;;;;;;;23.60;16.45;;;5.40;47.20;;;;;;5011476;28;20192;-73
2022/04/02 12:22:31;;;;;;;29.63;16.80;;;5.40;48.30;;;;;;5005118;28;20213;-74
2022/04/02 12:25:18;;;;;;;25.88;16.27;;;5.40;48.70;;;;;;5021025;28;20327;-74
2022/04/02 12:27:51;;;;;;;25.52;17.13;;;4.70;52.50;;;;;;5008249;28;20698;-73
2022/04/02 12:30:22;;;;;;;27.05;17.85;;;5.20;49.90;;;;;;5011791;28;20675;-73
2022/04/02 12:32:48;;;;;;;31.55;17.92;;;5.90;47.50;;;;;;5011512;28;20673;-73
2022/04/02 12:35:24;;;;;;;26.97;17.63;;;6.30;45.60;;;;;;5045955;28;20194;-72
2022/04/02 12:37:57;;;;;;;34.10;17.77;;;6.20;46.30;;;;;;5110155;28;20255;-72
2022/04/02 12:40:31;;;;;;;26.88;17.60;;;6.50;45.30;;;;;;5108062;28;20293;-72
2022/04/02 12:43:09;;;;;;;24.50;16.73;;;6.80;43.20;;;;;;5103360;28;20825;-73
2022/04/02 12:45:37;;;;;;;27.48;16.88;;;7.00;42.00;;;;;;5100625;28;20284;-71
2022/04/02 12:48:11;;;;;;;30.30;16.75;;;6.80;40.10;;;;;;5110760;28;20247;-72
2022/04/02 12:51:00;;;;;;;25.85;17.98;;;5.60;45.80;;;;;;5103093;28;20189;-71
2022/04/02 12:53:33;;;;;;;29.63;19.45;;;5.90;46.00;;;;;;5098250;28;20621;-72
2022/04/02 12:56:02;;;;;;;27.42;18.90;;;6.00;45.70;;;;;;5091310;28;20258;-71